Meteorología y climatología de Navarra
Datos de la estación - Meteo Navarra

Estación de Arangoiti GN

Altitud 1353 m.


Datos desde el 11/01/2019 hasta el 12/01/2019 en horario solar
Los datos son PROVISIONALES

Anterior Página 1 de 1 Siguiente Descargar: Formato para Excel 2000 o superior   Formato csv   Formato para OpenOffice Calc
Fecha Temperatura Humedad relativa Radiación global Insolación Precipitación Velocidad viento 10 m Velocidad viento 10 m Dirección viento 10 m
ºC % W/m² s l/m² m/s km/h º
11/01/2019 0:00 -7.3 95 0.0 0 0.0 12.1 43.7 22
11/01/2019 0:10 -7.7 95 0.0 0 0.0 12.3 44.3 24
11/01/2019 0:20 -7.6 95 0.0 0 0.0 11.8 42.6 18
11/01/2019 0:30 -8.1 95 0.0 0 0.0 12.1 43.4 18
11/01/2019 0:40 -7.9 95 0.0 0 0.0 11.9 42.8 15
11/01/2019 0:50 -7.6 95 0.0 0 0.0 10.7 38.7 10
11/01/2019 1:00 -7.8 95 0.0 0 0.0 10.8 38.8 7
11/01/2019 1:10 -7.3 95 0.0 0 0.0 10.9 39.2 6
11/01/2019 1:20 -7.6 95 0.0 0 0.0 10.7 38.3 11
11/01/2019 1:30 -7.3 95 0.0 0 0.0 11.1 40.0 11
11/01/2019 1:40 -7.1 95 0.0 0 0.0 10.7 38.4 8
11/01/2019 1:50 -7.1 95 0.0 0 0.0 11.5 41.3 13
11/01/2019 2:00 -6.7 95 0.0 0 0.0 10.0 36.0 5
11/01/2019 2:10 -7.1 95 0.0 0 0.0 10.5 37.7 1
11/01/2019 2:20 -7.1 95 0.0 0 0.0 11.1 39.9 1
11/01/2019 2:30 -7.3 95 0.0 0 0.0 10.7 38.4 4
11/01/2019 2:40 -7.1 95 0.0 0 0.0 11.4 40.9 1
11/01/2019 2:50 -7.4 95 0.0 0 0.0 12.1 43.5 358
11/01/2019 3:00 -7.3 95 0.0 0 0.0 12.0 43.1 360
11/01/2019 3:10 -7.3 95 0.0 0 0.0 12.4 44.6 359
11/01/2019 3:20 -7.3 95 0.0 0 0.0 12.4 44.7 1
11/01/2019 3:30 -7.3 95 0.0 0 0.0 12.6 45.3 360
11/01/2019 3:40 -7.2 95 0.0 0 0.0 12.9 46.5 359
11/01/2019 3:50 -7.3 95 0.0 0 0.0 13.3 48.0 360
11/01/2019 4:00 -7.3 94 0.0 0 0.0 14.8 53.3 357
11/01/2019 4:10 -7.1 95 0.0 0 0.0 15.0 53.9 357
11/01/2019 4:20 -7.5 95 0.0 0 0.0 14.4 51.8 357
11/01/2019 4:30 -7.3 95 0.0 0 0.0 13.0 46.7 355
11/01/2019 4:40 -7.2 94 0.0 0 0.0 12.2 44.1 355
11/01/2019 4:50 -7.4 94 0.0 0 0.0 12.5 44.9 356
11/01/2019 5:00 -7.5 94 0.0 0 0.0 13.0 46.8 356
11/01/2019 5:10 -7.9 94 0.0 0 0.0 13.6 49.0 359
11/01/2019 5:20 -7.8 94 0.0 0 0.0 14.4 51.8 3
11/01/2019 5:30 -7.8 94 0.0 0 0.0 15.2 54.8 2
11/01/2019 5:40 -7.8 94 0.0 0 0.0 15.4 55.6 1
11/01/2019 5:50 -8.5 94 0.0 0 0.0 15.0 53.9 355
11/01/2019 6:00 -8.6 94 0.0 0 0.0 14.9 53.5 356
11/01/2019 6:10 -8.2 94 0.0 0 0.0 14.8 53.2 356
11/01/2019 6:20 -8.6 93 0.0 0 0.0 14.8 53.3 352
11/01/2019 6:30 -8.0 94 0.0 0 0.0 14.5 52.3 355
11/01/2019 6:40 -8.6 93 0.0 0 0.0 14.8 53.4 354
11/01/2019 6:50 -8.3 94 0.0 0 0.0 15.1 54.5 357
11/01/2019 7:00 -8.3 93 0.0 0 0.0 15.8 56.9 356
11/01/2019 7:10 -8.3 94 0.0 0 0.0 16.9 60.9 358
11/01/2019 7:20 -8.6 93 0.0 0 0.0 17.2 61.9 1
11/01/2019 7:30 -8.1 94 0.0 0 0.0 17.1 61.6 3
11/01/2019 7:40 -8.3 94 21.2 258 0.0 17.0 61.0 3
11/01/2019 7:50 -8.4 93 57.9 600 0.0 17.2 62.1 6
11/01/2019 8:00 -8.4 94 81.5 600 0.0 17.5 63.0 11
11/01/2019 8:10 -8.2 93 103.0 600 0.0 18.0 64.7 16
11/01/2019 8:20 -7.7 94 120.6 600 0.0 18.1 65.1 20
11/01/2019 8:30 -8.1 93 127.3 598 0.0 16.9 60.9 20
11/01/2019 8:40 -8.0 93 56.5 104 0.0 16.6 59.8 20
11/01/2019 8:50 -7.5 93 163.5 600 0.0 16.8 60.3 18
11/01/2019 9:00 -7.2 90 185.3 600 0.0 16.2 58.5 19
11/01/2019 9:10 -7.1 88 209.4 600 0.0 15.3 55.0 23
11/01/2019 9:20 -6.7 83 234.1 600 0.0 14.9 53.6 24
11/01/2019 9:30 -6.5 76 255.8 600 0.0 15.4 55.4 28
11/01/2019 9:40 -6.0 75 281.6 600 0.0 14.4 51.7 23
11/01/2019 9:50 -5.9 69 304.1 600 0.0 15.6 56.0 22
11/01/2019 10:00 -5.3 66 325.8 600 0.0 14.8 53.3 26
11/01/2019 10:10 -4.7 68 346.2 600 0.0 14.3 51.4 24
11/01/2019 10:20 -5.1 73 366.0 600 0.0 14.7 53.0 26
11/01/2019 10:30 -4.6 75 385.4 600 0.0 13.3 47.7 23
11/01/2019 10:40 -4.7 77 410.7 586 0.0 15.7 56.4 22
11/01/2019 10:50 -4.8 78 403.2 542 0.0 15.8 57.0 22
11/01/2019 11:00 -3.9 78 417.0 538 0.0 17.4 62.6 23
11/01/2019 11:10 -3.8 78 465.3 566 0.0 16.0 57.5 25
11/01/2019 11:20 -4.5 78 478.2 570 0.0 16.8 60.6 28
11/01/2019 11:30 -4.4 77 487.0 600 0.0 16.5 59.4 25
11/01/2019 11:40 -4.1 77 465.4 600 0.0 17.7 63.8 31
11/01/2019 11:50 -4.5 77 467.5 600 0.0 19.6 70.7 30
11/01/2019 12:00 -4.0 77 471.2 600 0.0 19.7 71.0 30
11/01/2019 12:10 -3.9 76 473.3 600 0.0 19.4 69.9 31
11/01/2019 12:20 -3.7 75 474.1 600 0.0 18.2 65.6 32
11/01/2019 12:30 -3.5 74 472.6 600 0.0 15.9 57.3 31
11/01/2019 12:40 -3.8 73 469.4 600 0.0 13.8 49.6 30
11/01/2019 12:50 -2.9 74 465.2 600 0.0 12.4 44.7 26
11/01/2019 13:00 -3.5 73 459.9 600 0.0 15.4 55.4 26
11/01/2019 13:10 -3.4 73 450.6 600 0.0 14.0 50.5 29
11/01/2019 13:20 -3.3 72 444.5 600 0.0 13.3 47.9 29
11/01/2019 13:30 -3.0 72 433.7 600 0.0 12.9 46.3 26
11/01/2019 13:40 -2.8 72 420.5 600 0.0 12.8 46.2 23
11/01/2019 13:50 -2.6 73 401.9 598 0.0 11.8 42.6 27
11/01/2019 14:00 -2.7 72 391.8 596 0.0 13.3 48.0 27
11/01/2019 14:10 -2.7 74 374.9 600 0.0 12.6 45.5 25
11/01/2019 14:20 -2.6 74 360.3 600 0.0 13.2 47.6 26
11/01/2019 14:30 -3.0 74 340.9 600 0.0 12.2 43.7 25
11/01/2019 14:40 -3.1 75 320.4 600 0.0 13.6 49.1 28
11/01/2019 14:50 -2.7 75 298.8 600 0.0 13.9 50.1 26
11/01/2019 15:00 -2.3 75 278.0 600 0.0 16.0 57.7 25
11/01/2019 15:10 -2.5 76 254.6 600 0.0 15.6 56.1 25
11/01/2019 15:20 -3.2 76 234.5 600 0.0 15.0 54.1 21
11/01/2019 15:30 -2.7 76 207.8 600 0.0 16.3 58.5 25
11/01/2019 15:40 -3.0 77 173.2 598 0.0 15.3 55.1 26
11/01/2019 15:50 -3.0 78 53.6 0 0.0 16.0 57.7 16
11/01/2019 16:00 -3.6 79 60.9 76 0.0 16.4 58.9 19
11/01/2019 16:10 -3.7 80 56.5 238 0.0 15.8 56.8 13
11/01/2019 16:20 -3.9 81 72.3 600 0.0 15.1 54.3 11
11/01/2019 16:30 -3.8 81 46.2 544 0.0 13.8 49.8 12
11/01/2019 16:40 -3.5 82 31.9 380 0.0 13.9 50.1 7
11/01/2019 16:50 -4.1 83 7.7 0 0.0 13.5 48.7 10
11/01/2019 17:00 -4.1 82 0.0 0 0.0 16.1 58.0 7
11/01/2019 17:10 -3.5 83 0.0 0 0.0 16.1 57.9 17
11/01/2019 17:20 -3.9 81 0.0 0 0.0 16.9 60.9 11
11/01/2019 17:30 -3.7 81 0.0 0 0.0 17.9 64.6 11
11/01/2019 17:40 -3.5 81 0.0 0 0.0 17.0 61.1 18
11/01/2019 17:50 -3.9 81 0.0 0 0.0 17.0 61.3 15
11/01/2019 18:00 -3.9 81 0.0 0 0.0 17.1 61.5 15
11/01/2019 18:10 -3.5 81 0.0 0 0.0 17.2 62.0 17
11/01/2019 18:20 -4.2 83 0.0 0 0.0 17.0 61.0 14
11/01/2019 18:30 -3.7 85 0.0 0 0.0 15.7 56.4 11
11/01/2019 18:40 -4.7 86 0.0 0 0.0 14.1 50.7 10
11/01/2019 18:50 -3.9 85 0.0 0 0.0 14.3 51.4 9
11/01/2019 19:00 -4.5 89 0.0 0 0.0 14.4 51.7 7
11/01/2019 19:10 -4.9 88 0.0 0 0.0 13.8 49.5 6
11/01/2019 19:20 -4.4 88 0.0 0 0.0 14.2 51.0 5
11/01/2019 19:30 -4.2 85 0.0 0 0.0 15.2 54.9 15
11/01/2019 19:40 -3.5 85 0.0 0 0.0 16.4 59.1 14
11/01/2019 19:50 -4.2 85 0.0 0 0.0 16.1 58.0 15
11/01/2019 20:00 -3.9 87 0.0 0 0.0 14.9 53.7 14
11/01/2019 20:10 -4.3 88 0.0 0 0.0 14.1 50.7 12
11/01/2019 20:20 -4.5 88 0.0 0 0.0 15.1 54.3 12
11/01/2019 20:30 -4.2 89 0.0 0 0.0 16.2 58.5 10
11/01/2019 20:40 -4.5 90 0.0 0 0.0 16.0 57.6 11
11/01/2019 20:50 -5.3 93 0.0 0 0.0 15.1 54.3 10
11/01/2019 21:00 -5.4 96 0.0 0 0.0 15.1 54.5 6
11/01/2019 21:10 -5.8 97 0.0 0 0.0 16.0 57.5 4
11/01/2019 21:20 -5.6 97 0.0 0 0.0 16.4 58.9 3
11/01/2019 21:30 -5.6 97 0.0 0 0.0 15.4 55.4 2
11/01/2019 21:40 -5.6 97 0.0 0 0.0 15.0 53.8 4
11/01/2019 21:50 -6.0 96 0.0 0 0.0 15.5 55.6 5
11/01/2019 22:00 -5.9 96 0.0 0 0.0 15.3 55.2 5
11/01/2019 22:10 -5.6 97 0.0 0 0.0 15.3 55.2 4
11/01/2019 22:20 -5.6 96 0.0 0 0.0 15.4 55.4 3
11/01/2019 22:30 -6.0 96 0.0 0 0.0 15.7 56.5 3
11/01/2019 22:40 -6.1 96 0.0 0 0.0 15.9 57.1 3
11/01/2019 22:50 -5.7 96 0.0 0 0.0 15.9 57.2 3
11/01/2019 23:00 -5.6 96 0.0 0 0.0 15.9 57.1 3
11/01/2019 23:10 -5.7 97 0.0 0 0.0 17.0 61.3 3
11/01/2019 23:20 -5.6 96 0.0 0 0.0 17.8 63.9 3
11/01/2019 23:30 -5.6 96 0.0 0 0.0 17.0 61.1 4
11/01/2019 23:40 -5.8 96 0.0 0 0.0 16.7 60.1 3
11/01/2019 23:50 -5.3 97 0.0 0 0.0 16.7 60.3 3
Anterior Página 1 de 1 Siguiente
Los datos de precipitación registrados en estaciones que están en cumbres son inferiores a lo real, como consecuencia del efecto del viento y de la nieve.


NOTA: Tipo de datos según el color:
   - Valores diarios o 10 minutos correctos
   - Valores diarios calculados a partir de un número de datos 10 minutos menor que 144 y mayor que 120, o de un número de datos semihorarios menor que 48 y mayor que 40 (caso de las estaciones de Riegos de Navarra y del MARM)
   - Valores diez minutos estimados


Contacto        Enlaces        Aviso legal